Time;durP1;ratioP1;P1;durP2;ratioP2;P2;SDS_P1;SDS_P2;PMS_P1;PMS_P2;Temp;Humidity;BMP_temperature;BMP_pressure;BME280_temperature;BME280_humidity;BME280_pressure;Samples;Min_cycle;Max_cycle;Signal;HPM_P1;HPM_P2
2022/03/03 00:00:49;;;;;;;65.78;35.28;;;2.00;99.90;;;;;;5070378;28;20045;-66
2022/03/03 00:03:15;;;;;;;70.32;34.40;;;2.00;99.90;;;;;;5071499;28;20496;-66
2022/03/03 00:05:42;;;;;;;68.68;33.08;;;2.00;99.90;;;;;;5070559;28;20564;-67
2022/03/03 00:08:10;;;;;;;67.22;34.75;;;2.00;99.90;;;;;;5070763;28;20098;-66
2022/03/03 00:10:37;;;;;;;64.38;34.88;;;2.00;99.90;;;;;;5070606;28;20040;-66
2022/03/03 00:13:04;;;;;;;65.45;33.70;;;1.90;99.90;;;;;;5072437;28;20056;-66
2022/03/03 00:15:34;;;;;;;64.68;32.60;;;1.90;99.90;;;;;;5069812;28;20106;-67
2022/03/03 00:18:01;;;;;;;67.65;35.00;;;1.90;99.90;;;;;;5070872;28;20507;-67
2022/03/03 00:20:29;;;;;;;59.83;31.60;;;1.90;99.90;;;;;;5071001;28;20408;-67
2022/03/03 00:22:56;;;;;;;74.15;35.47;;;1.90;99.90;;;;;;5070446;28;20102;-67
2022/03/03 00:25:24;;;;;;;67.13;32.83;;;1.90;99.90;;;;;;5070549;28;20053;-67
2022/03/03 00:27:51;;;;;;;64.03;33.20;;;1.80;99.90;;;;;;5070829;28;20102;-67
2022/03/03 00:30:18;;;;;;;69.07;36.72;;;1.80;99.90;;;;;;5071654;28;20098;-79
2022/03/03 00:32:45;;;;;;;67.75;33.40;;;1.10;99.90;;;;;;5071081;28;20499;-76
2022/03/03 00:35:13;;;;;;;68.43;33.55;;;1.80;99.90;;;;;;5070760;28;20052;-74
2022/03/03 00:37:40;;;;;;;68.30;35.55;;;1.80;99.90;;;;;;5070655;28;20117;-75
2022/03/03 00:40:09;;;;;;;64.43;33.92;;;1.70;99.90;;;;;;5070795;28;20267;-75
2022/03/03 00:42:37;;;;;;;66.85;34.50;;;1.80;99.90;;;;;;5069935;28;20102;-74
2022/03/03 00:45:05;;;;;;;69.15;34.47;;;1.70;99.90;;;;;;5071521;28;20115;-76
2022/03/03 00:47:32;;;;;;;66.05;34.30;;;1.60;99.90;;;;;;5070816;28;20091;-76
2022/03/03 00:49:59;;;;;;;68.10;36.15;;;1.60;99.90;;;;;;5069883;28;20102;-75
2022/03/03 00:52:26;;;;;;;67.03;32.75;;;1.60;99.90;;;;;;5069983;28;20056;-73
2022/03/03 00:54:53;;;;;;;67.20;34.75;;;1.60;99.90;;;;;;5070516;28;20052;-74
2022/03/03 00:57:20;;;;;;;66.70;33.30;;;1.50;99.90;;;;;;5069386;28;20091;-73
2022/03/03 00:59:48;;;;;;;68.93;33.55;;;1.50;99.90;;;;;;5070443;28;20076;-71
2022/03/03 01:02:15;;;;;;;62.22;33.47;;;1.50;99.90;;;;;;5069880;28;20058;-71
2022/03/03 01:04:42;;;;;;;64.90;32.83;;;1.40;99.90;;;;;;5069281;28;20056;-72
2022/03/03 01:07:09;;;;;;;63.80;32.40;;;1.50;99.90;;;;;;5070293;28;20114;-71
2022/03/03 01:09:36;;;;;;;67.18;33.20;;;1.30;99.90;;;;;;5070113;28;20045;-71
2022/03/03 01:12:03;;;;;;;63.03;33.30;;;1.30;99.90;;;;;;5070726;28;20048;-72
2022/03/03 01:14:30;;;;;;;65.07;33.08;;;1.30;99.90;;;;;;5070150;28;20554;-71
2022/03/03 01:16:58;;;;;;;63.65;32.20;;;1.30;99.90;;;;;;5069873;28;20053;-71
2022/03/03 01:19:25;;;;;;;66.40;33.80;;;1.20;99.90;;;;;;5070656;28;20106;-72
2022/03/03 01:21:52;;;;;;;71.78;34.33;;;1.20;99.90;;;;;;5069872;28;20052;-72
2022/03/03 01:24:20;;;;;;;67.63;33.53;;;1.20;99.90;;;;;;5070301;28;20102;-71
2022/03/03 01:26:47;;;;;;;67.60;34.30;;;1.10;99.90;;;;;;5069609;28;20067;-71
2022/03/03 01:29:14;;;;;;;64.75;33.00;;;1.10;99.90;;;;;;5070121;28;20106;-72
2022/03/03 01:31:40;;;;;;;65.13;31.65;;;1.00;99.90;;;;;;5070259;28;20048;-71
2022/03/03 01:34:09;;;;;;;65.18;33.22;;;1.00;99.90;;;;;;5070127;28;20063;-72
2022/03/03 01:36:36;;;;;;;62.50;32.45;;;1.00;99.90;;;;;;5069640;28;20064;-72
2022/03/03 01:39:04;;;;;;;63.10;31.30;;;0.90;99.90;;;;;;5069448;28;20098;-72
2022/03/03 01:41:31;;;;;;;64.47;32.30;;;0.90;99.90;;;;;;5069956;28;20057;-73
2022/03/03 01:43:58;;;;;;;66.50;34.00;;;0.90;99.90;;;;;;5069985;28;20400;-72
2022/03/03 01:46:25;;;;;;;59.85;32.80;;;0.90;99.90;;;;;;5068835;28;20071;-72
2022/03/03 01:48:52;;;;;;;62.00;32.30;;;0.90;99.90;;;;;;5069955;28;20048;-72
2022/03/03 01:51:23;;;;;;;61.03;32.78;;;0.80;99.90;;;;;;5069564;28;20040;-72
2022/03/03 01:53:50;;;;;;;58.88;30.30;;;0.80;99.90;;;;;;5069315;28;20064;-72
2022/03/03 01:56:20;;;;;;;60.72;32.45;;;0.80;99.90;;;;;;5069714;28;20048;-72
2022/03/03 01:58:48;;;;;;;61.78;31.17;;;0.80;99.90;;;;;;5069575;28;20070;-71
2022/03/03 02:01:16;;;;;;;67.88;33.20;;;0.70;99.90;;;;;;5068686;28;20508;-72
2022/03/03 02:03:43;;;;;;;61.47;31.17;;;0.70;99.90;;;;;;5069707;28;20048;-74
2022/03/03 02:06:10;;;;;;;61.35;32.33;;;0.70;99.90;;;;;;5073734;28;20056;-73
2022/03/03 02:08:38;;;;;;;57.10;31.23;;;0.70;99.90;;;;;;5073142;28;20376;-73
2022/03/03 02:11:06;;;;;;;59.10;29.92;;;0.70;99.90;;;;;;5073295;28;20392;-74
2022/03/03 02:13:34;;;;;;;61.72;31.45;;;0.70;99.90;;;;;;5074449;28;20101;-72
2022/03/03 02:16:01;;;;;;;64.38;32.38;;;0.70;99.90;;;;;;5072717;28;20052;-72
2022/03/03 02:18:28;;;;;;;56.72;30.35;;;0.60;99.90;;;;;;5073068;28;20048;-73
2022/03/03 02:20:56;;;;;;;57.10;30.42;;;0.50;99.90;;;;;;5072436;28;20519;-73
2022/03/03 02:23:23;;;;;;;56.80;30.38;;;0.50;99.90;;;;;;5073131;28;20056;-72
2022/03/03 02:25:53;;;;;;;58.25;30.45;;;0.40;99.90;;;;;;5072771;28;20495;-72
2022/03/03 02:28:20;;;;;;;59.17;31.50;;;0.40;99.90;;;;;;5072098;28;20052;-73
2022/03/03 02:30:46;;;;;;;58.67;29.38;;;0.90;99.90;;;;;;5073077;28;20055;-72
2022/03/03 02:33:13;;;;;;;55.60;30.10;;;0.30;99.90;;;;;;5073463;28;20067;-73
2022/03/03 02:35:40;;;;;;;56.15;30.23;;;0.30;99.90;;;;;;5072376;28;20052;-73
2022/03/03 02:38:10;;;;;;;64.93;32.53;;;0.30;99.90;;;;;;5074041;28;20072;-73
2022/03/03 02:40:37;;;;;;;67.57;32.72;;;0.30;99.90;;;;;;5075177;28;20055;-73
2022/03/03 02:43:03;;;;;;;68.22;33.15;;;0.50;99.90;;;;;;5073796;28;20135;-72
2022/03/03 02:45:30;;;;;;;59.53;30.60;;;0.30;99.90;;;;;;5072975;28;20442;-74
2022/03/03 02:47:57;;;;;;;57.28;30.13;;;0.30;99.90;;;;;;5072865;28;20056;-74
2022/03/03 02:50:25;;;;;;;57.47;29.15;;;0.30;99.90;;;;;;5071759;28;20041;-71
2022/03/03 02:52:52;;;;;;;60.65;30.98;;;0.30;99.90;;;;;;5072701;28;20117;-73
2022/03/03 02:55:22;;;;;;;59.00;30.80;;;0.30;99.90;;;;;;5072564;28;20329;-72
2022/03/03 02:57:53;;;;;;;71.93;33.13;;;0.30;99.90;;;;;;5071770;28;20081;-74
2022/03/03 03:00:24;;;;;;;57.70;31.02;;;0.30;99.90;;;;;;5072487;28;20061;-72
2022/03/03 03:02:51;;;;;;;62.83;32.28;;;0.20;99.90;;;;;;5072207;28;20097;-74
2022/03/03 03:05:18;;;;;;;62.28;31.75;;;0.20;99.90;;;;;;5071641;28;20045;-73
2022/03/03 03:07:45;;;;;;;62.22;31.92;;;0.20;99.90;;;;;;5072152;28;20078;-73
2022/03/03 03:10:13;;;;;;;62.90;31.13;;;0.20;99.90;;;;;;5071586;28;20044;-74
2022/03/03 03:12:41;;;;;;;58.75;30.33;;;0.30;99.90;;;;;;5072152;28;20060;-74
2022/03/03 03:15:08;;;;;;;62.22;32.55;;;0.20;99.90;;;;;;5072060;28;20380;-73
2022/03/03 03:17:39;;;;;;;56.58;30.80;;;0.20;99.90;;;;;;5071811;28;20056;-73
2022/03/03 03:20:07;;;;;;;57.38;30.80;;;0.20;99.90;;;;;;5072282;28;20052;-72
2022/03/03 03:22:35;;;;;;;55.13;30.10;;;0.20;99.90;;;;;;5072174;28;20052;-72
2022/03/03 03:25:02;;;;;;;62.30;30.55;;;0.20;99.90;;;;;;5071649;28;20056;-72
2022/03/03 03:27:29;;;;;;;63.03;33.70;;;0.30;99.90;;;;;;5071688;28;20048;-73
2022/03/03 03:29:57;;;;;;;60.40;30.10;;;0.30;99.90;;;;;;5071920;28;20051;-74
2022/03/03 03:32:24;;;;;;;58.17;31.63;;;0.30;99.90;;;;;;5071535;28;20086;-72
2022/03/03 03:34:51;;;;;;;58.58;31.98;;;0.50;99.90;;;;;;5071977;28;20130;-72
2022/03/03 03:37:18;;;;;;;57.70;30.52;;;0.30;99.90;;;;;;5072777;28;20048;-72
2022/03/03 03:39:45;;;;;;;59.70;31.27;;;0.30;99.90;;;;;;5071494;28;20057;-72
2022/03/03 03:42:12;;;;;;;59.00;30.50;;;0.30;99.90;;;;;;5071864;28;20052;-72
2022/03/03 03:44:39;;;;;;;54.92;30.25;;;0.30;99.90;;;;;;5071812;28;20098;-71
2022/03/03 03:47:09;;;;;;;63.55;30.42;;;0.30;99.90;;;;;;5072072;28;20048;-73
2022/03/03 03:49:36;;;;;;;59.97;32.40;;;0.30;99.90;;;;;;5072661;28;20044;-73
2022/03/03 03:52:04;;;;;;;54.78;30.30;;;0.40;99.90;;;;;;5071380;28;20462;-72
2022/03/03 03:54:31;;;;;;;61.85;31.92;;;0.30;99.90;;;;;;5070362;28;20049;-73
2022/03/03 03:56:58;;;;;;;57.95;29.67;;;0.30;99.90;;;;;;5071310;28;20052;-73
2022/03/03 03:59:25;;;;;;;53.78;28.67;;;0.30;99.90;;;;;;5071019;28;20117;-72
2022/03/03 04:01:52;;;;;;;55.67;29.13;;;0.30;99.90;;;;;;5072699;28;20447;-73
2022/03/03 04:04:23;;;;;;;55.47;31.35;;;0.30;99.90;;;;;;5071053;28;20048;-73
2022/03/03 04:06:53;;;;;;;;;;;0.30;99.90;;;;;;5071327;28;20048;-71
2022/03/03 04:09:19;;;;;;;56.70;30.27;;;0.30;99.90;;;;;;5071120;28;19967;-72
2022/03/03 04:11:46;;;;;;;52.30;29.00;;;0.30;99.90;;;;;;5071049;28;20488;-73
2022/03/03 04:14:13;;;;;;;54.85;27.92;;;0.40;99.90;;;;;;5070310;28;20491;-73
2022/03/03 04:16:40;;;;;;;57.22;29.58;;;0.40;99.90;;;;;;5072334;28;20052;-74
2022/03/03 04:19:07;;;;;;;51.72;28.67;;;0.40;99.90;;;;;;5072547;28;20053;-74
2022/03/03 04:21:35;;;;;;;48.33;29.30;;;0.40;99.90;;;;;;5070504;28;20056;-73
2022/03/03 04:24:02;;;;;;;51.08;26.60;;;0.50;99.90;;;;;;5070493;28;20130;-66
2022/03/03 04:26:29;;;;;;;49.67;27.85;;;0.40;99.90;;;;;;5070505;28;20048;-67
2022/03/03 04:28:56;;;;;;;50.92;27.25;;;0.50;99.90;;;;;;5070192;28;20109;-66
2022/03/03 04:31:22;;;;;;;46.35;26.80;;;0.40;99.90;;;;;;5072470;28;20442;-75
2022/03/03 04:33:49;;;;;;;47.88;26.27;;;0.40;99.90;;;;;;5070388;28;20056;-74
2022/03/03 04:36:16;;;;;;;49.80;26.63;;;0.40;99.90;;;;;;5070135;28;20118;-74
2022/03/03 04:38:47;;;;;;;51.90;27.13;;;0.40;99.90;;;;;;5071186;28;20280;-75
2022/03/03 04:41:14;;;;;;;48.22;27.08;;;0.30;99.90;;;;;;5070615;28;20044;-74
2022/03/03 04:43:41;;;;;;;48.70;26.15;;;0.30;99.90;;;;;;5069990;28;20052;-73
2022/03/03 04:46:08;;;;;;;49.85;25.95;;;0.30;99.90;;;;;;5070211;28;20052;-74
2022/03/03 04:48:35;;;;;;;48.53;26.33;;;0.30;99.90;;;;;;5071002;28;20148;-76
2022/03/03 04:51:02;;;;;;;49.65;27.25;;;0.20;99.90;;;;;;5070509;28;20040;-75
2022/03/03 04:53:29;;;;;;;48.38;25.30;;;0.20;99.90;;;;;;5070080;28;20052;-74
2022/03/03 04:55:59;;;;;;;43.90;23.65;;;0.20;99.90;;;;;;5069500;28;20048;-74
2022/03/03 04:58:26;;;;;;;47.30;25.75;;;0.10;99.90;;;;;;5070545;28;20056;-73
2022/03/03 05:00:53;;;;;;;43.70;25.50;;;0.20;99.90;;;;;;5070255;28;20056;-74
2022/03/03 05:03:23;;;;;;;43.30;24.90;;;0.20;99.90;;;;;;5069892;28;20064;-74
2022/03/03 05:05:52;;;;;;;44.90;26.42;;;0.10;99.90;;;;;;5069990;28;20052;-73
2022/03/03 05:08:21;;;;;;;41.33;25.60;;;0.10;99.90;;;;;;5070073;28;20101;-74
2022/03/03 05:10:48;;;;;;;50.50;27.15;;;0.10;99.90;;;;;;5069731;28;20049;-71
2022/03/03 05:13:16;;;;;;;48.80;26.02;;;0.10;99.90;;;;;;5069905;28;20048;-72
2022/03/03 05:15:43;;;;;;;45.88;26.13;;;0.10;99.90;;;;;;5070222;28;20505;-72
2022/03/03 05:18:10;;;;;;;46.35;26.80;;;0.10;99.90;;;;;;5069635;28;20048;-72
2022/03/03 05:20:38;;;;;;;50.25;25.60;;;0.10;99.90;;;;;;5070312;28;20098;-72
2022/03/03 05:23:05;;;;;;;50.08;26.63;;;0.00;99.90;;;;;;5069571;28;20106;-74
2022/03/03 05:25:31;;;;;;;50.38;26.35;;;0.00;99.90;;;;;;5069556;28;20048;-74
2022/03/03 05:28:00;;;;;;;51.80;25.83;;;0.00;99.90;;;;;;5070143;28;20561;-66
2022/03/03 05:30:28;;;;;;;47.97;25.70;;;-0.10;99.90;;;;;;5069698;28;20050;-66
2022/03/03 05:32:57;;;;;;;44.15;25.05;;;-0.10;99.90;;;;;;5069752;28;20110;-65
2022/03/03 05:35:24;;;;;;;52.17;27.10;;;-0.10;99.90;;;;;;5052982;28;20060;-66
2022/03/03 05:37:51;;;;;;;49.88;26.13;;;-0.10;99.90;;;;;;5062604;28;20045;-66
2022/03/03 05:40:18;;;;;;;45.10;25.70;;;-0.20;99.90;;;;;;5068927;28;20442;-66
2022/03/03 05:42:45;;;;;;;45.35;24.90;;;-0.10;99.90;;;;;;5068939;28;20110;-67
2022/03/03 05:45:13;;;;;;;44.08;26.17;;;1.20;99.90;;;;;;5064888;28;20068;-67
2022/03/03 05:47:41;;;;;;;49.75;28.27;;;-0.20;99.90;;;;;;5064776;28;20113;-68
2022/03/03 05:50:09;;;;;;;47.47;26.42;;;-0.20;99.90;;;;;;5066226;28;20361;-69
2022/03/03 05:52:39;;;;;;;47.50;27.38;;;-0.20;99.90;;;;;;5067362;28;20056;-67
2022/03/03 05:55:06;;;;;;;47.38;26.90;;;-0.20;99.90;;;;;;5066200;28;20434;-67
2022/03/03 05:57:36;;;;;;;51.63;27.65;;;-0.30;99.90;;;;;;5066072;28;20044;-66
2022/03/03 06:00:08;;;;;;;47.90;26.10;;;-0.30;99.90;;;;;;5072954;28;20080;-66
2022/03/03 06:02:35;;;;;;;52.53;28.35;;;-0.30;99.90;;;;;;5065710;28;20085;-66
2022/03/03 06:05:05;;;;;;;48.88;26.73;;;-0.40;99.90;;;;;;5066922;28;20404;-65
2022/03/03 06:07:37;;;;;;;47.28;27.08;;;-0.40;99.90;;;;;;5063994;28;20118;-65
2022/03/03 06:10:05;;;;;;;45.85;25.52;;;-0.40;99.90;;;;;;5066743;28;20059;-66
2022/03/03 06:12:40;;;;;;;45.42;25.38;;;-0.40;99.90;;;;;;5069816;28;20045;-66
2022/03/03 06:15:08;;;;;;;49.40;26.60;;;-0.20;99.90;;;;;;5065152;28;20105;-67
2022/03/03 06:17:35;;;;;;;51.17;27.08;;;-0.40;99.90;;;;;;5062539;28;20519;-66
2022/03/03 06:20:04;;;;;;;49.95;26.13;;;-0.40;99.90;;;;;;5065136;28;20118;-66
2022/03/03 06:22:31;;;;;;;42.50;25.55;;;-0.40;99.90;;;;;;5067356;28;20056;-66
2022/03/03 06:24:58;;;;;;;47.55;25.92;;;0.00;99.90;;;;;;5067591;28;20052;-66
2022/03/03 06:27:26;;;;;;;45.97;25.25;;;-0.10;99.90;;;;;;5066214;28;20053;-65
2022/03/03 06:29:55;;;;;;;49.17;27.27;;;-0.10;99.90;;;;;;5070918;28;20131;-65
2022/03/03 06:32:22;;;;;;;49.20;27.02;;;-0.10;99.90;;;;;;5065138;28;20041;-65
2022/03/03 06:34:51;;;;;;;50.75;26.73;;;-0.10;99.90;;;;;;5070733;28;20044;-67
2022/03/03 06:37:21;;;;;;;57.40;28.25;;;-0.10;99.90;;;;;;5067539;28;20040;-66
2022/03/03 06:39:47;;;;;;;51.73;27.00;;;-0.10;99.90;;;;;;5068500;28;20089;-66
2022/03/03 06:42:14;;;;;;;49.60;27.73;;;-0.20;99.90;;;;;;5064737;28;20375;-67
2022/03/03 06:44:41;;;;;;;49.90;28.25;;;0.00;99.90;;;;;;5064817;28;20102;-66
2022/03/03 06:47:08;;;;;;;51.60;26.67;;;0.00;99.90;;;;;;5064750;28;20048;-67
2022/03/03 06:49:35;;;;;;;54.15;26.85;;;0.00;99.90;;;;;;5069252;28;20045;-67
2022/03/03 06:52:03;;;;;;;47.25;28.60;;;0.00;99.90;;;;;;5059158;28;20048;-66
2022/03/03 06:54:33;;;;;;;49.38;26.65;;;0.10;99.90;;;;;;5063613;28;20055;-67
2022/03/03 06:57:00;;;;;;;52.60;28.10;;;0.10;99.90;;;;;;5063719;28;20057;-67
2022/03/03 06:59:29;;;;;;;48.13;27.63;;;0.20;99.90;;;;;;5068150;28;20048;-74
2022/03/03 07:01:59;;;;;;;48.95;28.00;;;0.20;99.90;;;;;;5065424;28;20457;-76
2022/03/03 07:04:26;;;;;;;48.05;26.55;;;0.30;99.90;;;;;;5068158;28;20563;-74
2022/03/03 07:06:53;;;;;;;49.30;26.40;;;0.30;99.90;;;;;;5061192;28;20050;-75
2022/03/03 07:09:23;;;;;;;47.38;26.65;;;0.40;99.90;;;;;;5065754;28;20396;-74
2022/03/03 07:11:51;;;;;;;55.38;29.92;;;0.40;99.90;;;;;;5064072;28;20106;-74
2022/03/03 07:14:19;;;;;;;49.75;26.90;;;0.60;99.90;;;;;;5071614;28;20510;-73
2022/03/03 07:19:50;;;;;;;46.22;25.73;;;0.70;99.90;;;;;;5068796;28;20531;-74
2022/03/03 07:22:20;;;;;;;57.08;27.98;;;0.90;99.90;;;;;;5072384;28;20407;-74
2022/03/03 07:24:52;;;;;;;43.38;25.85;;;1.20;99.90;;;;;;5071690;28;20086;-73
2022/03/03 07:27:25;;;;;;;47.78;26.40;;;1.40;99.90;;;;;;5067787;28;20078;-74
2022/03/03 07:29:57;;;;;;;47.45;26.58;;;1.40;99.90;;;;;;5072568;28;20050;-74
2022/03/03 07:32:33;;;;;;;46.95;26.90;;;1.60;99.90;;;;;;5071207;28;20067;-74
2022/03/03 07:35:05;;;;;;;46.55;27.58;;;2.40;99.90;;;;;;5066857;28;20052;-75
2022/03/03 07:37:36;;;;;;;46.15;28.38;;;3.50;99.90;;;;;;5072011;28;20044;-75
2022/03/03 07:40:07;;;;;;;45.67;27.38;;;4.80;99.90;;;;;;5072158;28;20052;-74
2022/03/03 07:42:36;;;;;;;;;;;5.40;99.90;;;;;;5072180;28;20082;-73
2022/03/03 07:45:04;;;;;;;47.83;26.73;;;6.10;99.90;;;;;;5071157;28;19920;-75
2022/03/03 07:47:31;;;;;;;45.92;27.63;;;6.70;99.90;;;;;;5070766;28;20044;-75
2022/03/03 07:49:59;;;;;;;46.13;26.15;;;7.20;99.90;;;;;;5071909;28;20500;-74
2022/03/03 07:52:26;;;;;;;43.03;26.00;;;7.60;99.90;;;;;;5070839;28;20049;-75
2022/03/03 07:54:54;;;;;;;45.70;27.67;;;8.10;99.90;;;;;;5072332;28;20049;-75
2022/03/03 07:57:28;;;;;;;43.75;25.55;;;8.60;99.90;;;;;;5071040;28;20060;-75
2022/03/03 08:00:04;;;;;;;39.58;26.25;;;8.90;99.90;;;;;;5068548;28;20055;-75
2022/03/03 08:02:34;;;;;;;36.30;24.48;;;9.40;99.00;;;;;;5070313;28;20052;-75
2022/03/03 08:05:02;;;;;;;40.83;24.60;;;9.70;97.30;;;;;;5071345;28;20109;-76
2022/03/03 08:07:32;;;;;;;40.13;26.30;;;9.80;98.20;;;;;;5070974;28;20102;-75
2022/03/03 08:10:00;;;;;;;43.85;25.73;;;9.90;96.50;;;;;;5071679;28;20052;-75
2022/03/03 08:12:31;;;;;;;39.45;25.33;;;10.30;93.60;;;;;;5071955;28;20064;-75
2022/03/03 08:15:00;;;;;;;38.08;25.33;;;10.70;92.70;;;;;;5067601;28;20185;-75
2022/03/03 08:17:27;;;;;;;38.30;25.23;;;10.50;92.50;;;;;;5070132;28;20052;-75
2022/03/03 08:19:55;;;;;;;37.90;24.75;;;10.90;93.70;;;;;;5070938;28;20053;-73
2022/03/03 08:22:25;;;;;;;41.15;26.02;;;11.60;92.80;;;;;;5072130;28;20123;-76
2022/03/03 08:24:56;;;;;;;37.58;25.20;;;12.30;88.70;;;;;;5071496;28;20056;-75
2022/03/03 08:27:23;;;;;;;31.50;22.45;;;12.00;85.50;;;;;;5071333;28;20044;-76
2022/03/03 08:29:51;;;;;;;32.08;22.83;;;12.30;85.80;;;;;;5071060;28;20112;-74
2022/03/03 08:32:20;;;;;;;33.85;23.92;;;12.40;84.10;;;;;;5069530;28;20094;-74
2022/03/03 08:34:58;;;;;;;37.65;23.83;;;13.50;81.10;;;;;;5070320;28;20488;-74
2022/03/03 08:37:30;;;;;;;32.03;22.33;;;13.90;78.80;;;;;;5066121;28;20102;-75
2022/03/03 08:40:01;;;;;;;26.33;20.23;;;14.00;75.40;;;;;;5070778;28;20519;-76
2022/03/03 08:42:33;;;;;;;32.38;21.88;;;14.10;81.00;;;;;;5070857;28;20091;-75
2022/03/03 08:45:02;;;;;;;28.50;20.45;;;14.50;70.90;;;;;;5070492;28;20052;-74
2022/03/03 08:47:32;;;;;;;36.80;21.42;;;15.40;69.90;;;;;;5071272;28;20454;-73
2022/03/03 08:50:03;;;;;;;29.80;21.77;;;15.60;68.60;;;;;;5065162;28;20060;-75
2022/03/03 08:52:30;;;;;;;28.98;20.45;;;15.20;69.30;;;;;;5070303;28;20302;-75
2022/03/03 08:54:57;;;;;;;30.25;22.60;;;15.50;69.30;;;;;;5070202;28;20052;-75
2022/03/03 08:57:24;;;;;;;27.55;20.33;;;16.20;69.40;;;;;;5071206;28;20048;-75
2022/03/03 08:59:51;;;;;;;28.55;21.08;;;16.10;64.00;;;;;;5070532;28;20054;-74
2022/03/03 09:02:18;;;;;;;29.92;20.17;;;16.30;64.50;;;;;;5069347;28;20052;-74
2022/03/03 09:04:47;;;;;;;27.25;20.45;;;16.20;62.20;;;;;;5071749;28;20051;-75
2022/03/03 09:07:15;;;;;;;28.10;20.98;;;16.50;64.70;;;;;;5070993;28;20056;-76
2022/03/03 09:09:42;;;;;;;30.17;21.05;;;17.30;64.10;;;;;;5067763;28;20063;-76
2022/03/03 09:12:10;;;;;;;28.33;21.77;;;16.60;60.10;;;;;;5069885;28;20094;-75
2022/03/03 09:14:37;;;;;;;31.50;21.50;;;15.90;59.60;;;;;;5069824;28;20052;-75
2022/03/03 09:17:04;;;;;;;27.50;20.70;;;15.60;60.70;;;;;;5070541;28;20048;-74
2022/03/03 09:19:31;;;;;;;27.20;20.33;;;16.10;60.70;;;;;;5070171;28;20049;-75
2022/03/03 09:21:59;;;;;;;28.13;21.05;;;16.10;61.90;;;;;;5058842;28;20533;-75
2022/03/03 09:24:26;;;;;;;26.75;20.90;;;16.10;60.10;;;;;;5069557;28;20052;-76
2022/03/03 09:26:54;;;;;;;27.48;19.55;;;16.70;60.80;;;;;;5069668;28;20059;-75
2022/03/03 09:29:21;;;;;;;26.35;20.90;;;16.60;62.50;;;;;;5071096;28;20078;-76
2022/03/03 09:31:50;;;;;;;25.25;20.48;;;16.50;60.80;;;;;;5069026;28;20496;-76
2022/03/03 09:34:18;;;;;;;30.10;20.67;;;17.10;62.40;;;;;;5070324;28;20510;-74
2022/03/03 09:36:44;;;;;;;26.95;20.67;;;16.70;60.30;;;;;;5070086;28;20048;-76
2022/03/03 09:39:13;;;;;;;28.10;21.10;;;17.80;61.80;;;;;;5069604;28;20063;-75
2022/03/03 09:41:39;;;;;;;24.67;20.33;;;17.80;57.90;;;;;;5064489;28;20055;-74
2022/03/03 09:44:06;;;;;;;24.75;20.02;;;17.60;57.90;;;;;;5069875;28;20381;-75
2022/03/03 09:46:36;;;;;;;27.17;20.20;;;18.50;59.40;;;;;;5069804;28;20064;-75
2022/03/03 09:49:04;;;;;;;30.20;19.95;;;18.00;56.20;;;;;;5070102;28;20052;-75
2022/03/03 09:51:31;;;;;;;22.30;18.25;;;18.20;56.20;;;;;;5068993;28;20049;-75
2022/03/03 09:53:58;;;;;;;25.98;18.50;;;18.70;57.50;;;;;;5069904;28;20102;-75
2022/03/03 09:56:26;;;;;;;21.98;17.52;;;18.20;54.50;;;;;;5064248;28;20041;-76
2022/03/03 09:58:53;;;;;;;23.85;19.63;;;19.40;55.80;;;;;;5069694;28;20060;-77
2022/03/03 10:01:23;;;;;;;23.08;18.08;;;19.60;55.70;;;;;;5069604;28;20060;-75
2022/03/03 10:03:50;;;;;;;21.35;17.88;;;20.10;54.60;;;;;;5069819;28;20090;-75
2022/03/03 10:06:21;;;;;;;20.30;16.27;;;20.30;54.40;;;;;;5068832;28;20052;-75
2022/03/03 10:08:51;;;;;;;18.75;15.18;;;21.00;53.50;;;;;;5069911;28;20049;-76
2022/03/03 10:11:18;;;;;;;16.20;14.38;;;20.90;49.60;;;;;;5069235;28;20052;-76
2022/03/03 10:13:48;;;;;;;18.40;14.63;;;20.70;49.50;;;;;;5069193;28;20052;-76
2022/03/03 10:16:23;;;;;;;17.17;14.02;;;20.40;48.80;;;;;;5069768;28;20059;-76
2022/03/03 10:19:07;;;;;;;19.75;13.80;;;20.30;49.00;;;;;;5069364;28;20048;-77
2022/03/03 10:21:38;;;;;;;17.30;14.38;;;20.80;48.00;;;;;;5068874;28;20057;-76
2022/03/03 10:24:15;;;;;;;;;;;20.60;48.50;;;;;;5070089;28;20052;-77
2022/03/03 10:26:44;;;;;;;16.77;13.60;;;20.80;47.20;;;;;;5071840;28;20013;-75
2022/03/03 10:29:23;;;;;;;16.92;13.70;;;20.30;47.60;;;;;;5073409;28;20063;-76
2022/03/03 10:31:52;;;;;;;19.13;14.13;;;20.70;47.60;;;;;;5073503;28;20060;-76
2022/03/03 10:34:26;;;;;;;18.77;14.07;;;20.60;47.80;;;;;;5073731;28;20076;-75
2022/03/03 10:36:58;;;;;;;19.50;13.48;;;20.40;46.70;;;;;;5073239;28;20114;-75
2022/03/03 10:39:25;;;;;;;18.13;13.95;;;20.30;45.80;;;;;;5068003;28;20048;-76
2022/03/03 10:41:56;;;;;;;30.13;18.05;;;20.20;47.90;;;;;;5071928;28;20110;-75
2022/03/03 10:44:31;;;;;;;16.80;13.32;;;20.40;48.40;;;;;;5074107;28;20075;-76
2022/03/03 10:47:05;;;;;;;16.23;13.48;;;20.60;47.90;;;;;;5073757;28;20045;-75
2022/03/03 10:49:32;;;;;;;17.02;13.75;;;20.00;47.50;;;;;;5072237;28;20049;-75
2022/03/03 10:52:18;;;;;;;18.42;14.38;;;20.40;48.10;;;;;;5073043;28;20520;-76
2022/03/03 10:54:50;;;;;;;20.17;15.27;;;20.90;46.50;;;;;;5071582;28;20486;-75
2022/03/03 10:57:34;;;;;;;18.98;14.88;;;21.30;47.40;;;;;;5072586;28;20052;-76
2022/03/03 11:00:08;;;;;;;17.35;14.95;;;21.00;48.00;;;;;;5073339;28;20121;-75
2022/03/03 11:02:36;;;;;;;17.27;14.38;;;19.90;48.00;;;;;;5072371;28;20069;-76
2022/03/03 11:05:04;;;;;;;17.42;14.07;;;20.40;48.90;;;;;;5072109;28;20048;-76
2022/03/03 11:07:31;;;;;;;17.15;13.55;;;20.10;48.80;;;;;;5072519;28;20056;-76
2022/03/03 11:09:58;;;;;;;17.90;13.35;;;20.30;47.40;;;;;;5071631;28;20056;-76
2022/03/03 11:12:27;;;;;;;14.85;12.95;;;20.60;47.90;;;;;;5071801;28;20139;-76
2022/03/03 11:14:56;;;;;;;16.60;14.07;;;21.30;47.40;;;;;;5070631;28;20144;-76
2022/03/03 11:17:25;;;;;;;16.10;14.07;;;21.40;47.30;;;;;;5070637;28;20070;-77
2022/03/03 11:19:55;;;;;;;15.13;13.37;;;20.60;47.30;;;;;;5071327;28;20147;-76
2022/03/03 11:22:23;;;;;;;14.65;12.45;;;20.20;48.60;;;;;;5058605;28;20385;-76
2022/03/03 11:24:51;;;;;;;18.90;14.18;;;19.90;50.40;;;;;;5057861;28;20111;-75
2022/03/03 11:27:20;;;;;;;17.67;13.23;;;20.00;49.60;;;;;;5060375;28;20048;-75
2022/03/03 11:30:15;;;;;;;16.40;12.27;;;20.00;49.20;;;;;;5061524;28;20053;-76
2022/03/03 11:32:44;;;;;;;15.20;12.68;;;20.80;48.30;;;;;;5057712;28;20048;-76
2022/03/03 11:35:13;;;;;;;26.07;13.97;;;21.20;48.80;;;;;;5060514;28;20052;-76
2022/03/03 11:37:41;;;;;;;17.00;13.50;;;20.90;49.60;;;;;;5070227;28;20048;-76
2022/03/03 11:40:11;;;;;;;19.58;16.25;;;20.70;48.80;;;;;;5063883;28;20496;-76
2022/03/03 11:42:40;;;;;;;18.98;15.55;;;20.10;50.30;;;;;;5066236;28;20412;-76
2022/03/03 11:45:37;;;;;;;20.10;14.68;;;19.50;50.50;;;;;;5058236;28;20500;-76
2022/03/03 11:48:15;;;;;;;17.08;13.35;;;19.70;50.70;;;;;;5058977;28;20083;-75
2022/03/03 11:50:43;;;;;;;16.33;11.95;;;20.30;50.90;;;;;;5066359;28;20060;-75
2022/03/03 11:53:24;;;;;;;16.85;12.85;;;20.80;50.00;;;;;;5060229;28;20114;-74
2022/03/03 11:56:01;;;;;;;15.73;13.60;;;21.10;48.80;;;;;;5069937;28;20088;-76
2022/03/03 11:58:32;;;;;;;19.17;15.38;;;20.10;49.20;;;;;;5069403;28;20052;-76
2022/03/03 12:01:11;;;;;;;17.83;14.73;;;19.30;50.80;;;;;;5069545;28;20056;-76
2022/03/03 12:04:02;;;;;;;19.42;15.48;;;20.00;49.90;;;;;;5065455;28;21003;-76
2022/03/03 12:06:40;;;;;;;18.52;15.75;;;19.00;51.10;;;;;;5067923;28;20051;-75
2022/03/03 12:09:18;;;;;;;21.17;15.38;;;18.40;52.00;;;;;;5071697;28;20500;-78
2022/03/03 12:11:45;;;;;;;18.15;14.90;;;19.30;50.90;;;;;;5069950;28;20105;-75
2022/03/03 12:14:33;;;;;;;21.85;15.65;;;19.80;51.40;;;;;;5071663;28;20041;-75
2022/03/03 12:17:34;;;;;;;18.42;14.90;;;20.10;50.10;;;;;;5069413;28;20120;-77
2022/03/03 12:20:32;;;;;;;18.83;14.85;;;20.10;50.30;;;;;;5069906;28;20052;-76
2022/03/03 12:23:12;;;;;;;17.73;14.65;;;20.10;50.30;;;;;;5068056;28;20378;-76
2022/03/03 12:25:59;;;;;;;;;;;19.30;50.10;;;;;;5061698;28;20460;-77
2022/03/03 12:28:27;;;;;;;17.90;13.80;;;19.90;50.90;;;;;;5067995;28;19924;-77
2022/03/03 12:30:55;;;;;;;19.13;13.68;;;20.40;51.40;;;;;;5070633;28;20624;-76
2022/03/03 12:33:24;;;;;;;17.95;13.93;;;21.00;50.10;;;;;;5070458;28;20052;-77
2022/03/03 12:35:51;;;;;;;18.23;13.98;;;22.10;48.00;;;;;;5072441;28;20122;-76
2022/03/03 12:38:19;;;;;;;19.20;13.45;;;22.30;46.90;;;;;;5072333;28;20048;-76
2022/03/03 12:40:46;;;;;;;16.55;13.45;;;21.50;48.00;;;;;;5071445;28;20121;-74
2022/03/03 12:43:16;;;;;;;17.17;12.95;;;20.80;49.80;;;;;;5071808;28;20048;-77
2022/03/03 12:45:44;;;;;;;14.43;11.88;;;21.60;48.90;;;;;;5072133;28;20052;-76